createdAt,value
2022-09-26T00:01:08.151Z,46.01
2022-09-26T00:03:36.603Z,46.02
2022-09-26T00:06:06.307Z,46.05
2022-09-26T00:08:34.830Z,46.11
2022-09-26T00:11:03.967Z,46.10
2022-09-26T00:13:32.751Z,46.19
2022-09-26T00:16:00.805Z,46.24
2022-09-26T00:18:28.781Z,46.43
2022-09-26T00:21:02.986Z,46.34
2022-09-26T00:23:31.105Z,46.49
2022-09-26T00:25:59.047Z,46.37
2022-09-26T00:28:27.524Z,46.50
2022-09-26T00:30:56.095Z,46.50
2022-09-26T00:33:24.125Z,46.52
2022-09-26T00:35:52.373Z,46.65
2022-09-26T00:38:20.746Z,46.67
2022-09-26T00:40:49.766Z,46.73
2022-09-26T00:43:28.460Z,46.80
2022-09-26T00:45:59.013Z,46.75
2022-09-26T00:48:27.532Z,46.79
2022-09-26T00:50:55.554Z,46.85
2022-09-26T00:53:24.572Z,46.97
2022-09-26T00:55:54.496Z,47.01
2022-09-26T00:58:23.940Z,47.13
2022-09-26T01:00:51.931Z,47.17
2022-09-26T01:03:20.622Z,47.39
2022-09-26T01:05:48.615Z,47.41
2022-09-26T01:08:18.272Z,47.62
2022-09-26T01:10:46.195Z,47.80
2022-09-26T01:13:14.568Z,47.85
2022-09-26T01:15:42.391Z,47.83
2022-09-26T01:18:10.261Z,47.86
2022-09-26T01:20:42.696Z,47.83
2022-09-26T01:23:28.517Z,47.95
2022-09-26T01:26:08.408Z,48.01
2022-09-26T01:28:47.890Z,47.92
2022-09-26T01:31:22.409Z,47.83
2022-09-26T01:33:55.822Z,48.06
2022-09-26T01:36:28.093Z,48.25
2022-09-26T01:39:03.145Z,48.27
2022-09-26T01:41:38.613Z,48.23
2022-09-26T01:44:15.538Z,48.29
2022-09-26T01:46:46.491Z,48.42
2022-09-26T01:49:18.661Z,48.40
2022-09-26T01:51:50.724Z,48.42
2022-09-26T01:54:21.703Z,48.42
2022-09-26T01:56:51.003Z,48.54
2022-09-26T01:59:23.842Z,48.49
2022-09-26T02:01:53.497Z,48.67
2022-09-26T02:04:24.702Z,48.66
2022-09-26T02:06:54.852Z,48.73
2022-09-26T02:09:27.074Z,48.79
2022-09-26T02:11:56.387Z,48.79
2022-09-26T02:14:27.264Z,48.82
2022-09-26T02:16:58.177Z,48.81
2022-09-26T02:19:27.869Z,48.94
2022-09-26T02:21:58.075Z,48.96
2022-09-26T02:24:26.275Z,48.97
2022-09-26T02:26:54.428Z,49.12
2022-09-26T02:29:22.632Z,49.13
2022-09-26T02:31:55.245Z,49.17
2022-09-26T02:34:24.808Z,49.23
2022-09-26T02:36:54.507Z,49.21
2022-09-26T02:39:22.483Z,49.25
2022-09-26T02:41:52.609Z,49.35
2022-09-26T02:44:35.796Z,49.30
2022-09-26T02:47:21.737Z,49.36
2022-09-26T02:49:57.158Z,49.50
2022-09-26T02:52:31.353Z,49.45
2022-09-26T02:55:03.683Z,49.41
2022-09-26T02:57:37.148Z,49.42
2022-09-26T03:00:07.484Z,49.43
2022-09-26T03:02:39.312Z,49.46
2022-09-26T03:05:09.743Z,49.49
2022-09-26T03:07:41.501Z,49.40
2022-09-26T03:10:10.498Z,49.53
2022-09-26T03:12:39.804Z,49.58
2022-09-26T03:15:09.412Z,49.63
2022-09-26T03:17:41.323Z,49.69
2022-09-26T03:20:11.006Z,49.77
2022-09-26T03:22:38.995Z,49.86
2022-09-26T03:25:09.127Z,49.89
2022-09-26T03:27:39.804Z,49.86
2022-09-26T03:30:08.846Z,49.94
2022-09-26T03:32:37.211Z,49.90
2022-09-26T03:35:05.666Z,49.91
2022-09-26T03:37:34.549Z,50.02
2022-09-26T03:40:03.239Z,50.13
2022-09-26T03:42:32.950Z,50.17
2022-09-26T03:45:01.210Z,50.26
2022-09-26T03:47:29.472Z,50.26
2022-09-26T03:49:57.520Z,50.37
2022-09-26T03:52:25.563Z,50.37
2022-09-26T03:54:53.372Z,50.43
2022-09-26T03:57:21.535Z,50.50
2022-09-26T03:59:49.655Z,50.50
2022-09-26T04:02:17.455Z,50.62
2022-09-26T04:04:45.461Z,50.67
2022-09-26T04:07:18.438Z,50.75
2022-09-26T04:09:48.621Z,50.73
2022-09-26T04:12:16.751Z,50.78
2022-09-26T04:14:44.674Z,50.85
2022-09-26T04:17:15.672Z,50.92
2022-09-26T04:19:46.620Z,51.00
2022-09-26T04:22:14.448Z,50.98
2022-09-26T04:24:42.425Z,51.05
2022-09-26T04:27:26.414Z,51.05
2022-09-26T04:30:11.212Z,51.07
2022-09-26T04:32:39.594Z,51.14
2022-09-26T04:35:08.046Z,51.18
2022-09-26T04:37:37.608Z,51.26
2022-09-26T04:40:06.143Z,51.23
2022-09-26T04:42:34.179Z,51.27
2022-09-26T04:45:02.196Z,51.28
2022-09-26T04:47:30.540Z,51.37
2022-09-26T04:49:58.519Z,51.35
2022-09-26T04:52:26.951Z,51.36
2022-09-26T04:54:54.898Z,51.40
2022-09-26T04:57:22.908Z,51.45
2022-09-26T04:59:50.899Z,51.48
2022-09-26T05:02:20.104Z,51.44
2022-09-26T05:04:48.048Z,51.48
2022-09-26T05:07:15.979Z,51.47
2022-09-26T05:09:44.258Z,51.25
2022-09-26T05:12:16.678Z,50.79
2022-09-26T05:14:44.539Z,50.22
2022-09-26T05:17:12.461Z,50.00
2022-09-26T05:19:42.992Z,49.92
2022-09-26T05:22:13.971Z,49.33
2022-09-26T05:25:00.233Z,49.05
2022-09-26T05:27:28.148Z,48.77
2022-09-26T05:29:56.385Z,48.59
2022-09-26T05:32:24.567Z,48.49
2022-09-26T05:34:53.725Z,48.42
2022-09-26T05:37:21.674Z,48.21
2022-09-26T05:40:07.854Z,48.13
2022-09-26T05:42:35.862Z,48.13
2022-09-26T05:45:04.362Z,47.75
2022-09-26T05:47:35.685Z,47.63
2022-09-26T05:50:09.119Z,47.32
2022-09-26T05:52:37.651Z,47.48
2022-09-26T05:55:08.600Z,47.20
2022-09-26T05:57:39.042Z,46.91
2022-09-26T06:00:08.203Z,46.61
2022-09-26T06:02:36.291Z,46.66
2022-09-26T06:05:07.269Z,46.28
2022-09-26T06:07:36.093Z,46.18
2022-09-26T06:10:06.670Z,45.76
2022-09-26T06:12:35.213Z,45.60
2022-09-26T06:15:03.424Z,45.24
2022-09-26T06:17:31.924Z,44.99
2022-09-26T06:20:01.247Z,44.63
2022-09-26T06:22:29.506Z,44.43
2022-09-26T06:24:57.321Z,43.95
2022-09-26T06:27:25.259Z,43.72
2022-09-26T06:29:58.119Z,43.64
2022-09-26T06:32:31.019Z,43.46
2022-09-26T06:34:58.964Z,43.37
2022-09-26T06:37:28.632Z,43.03
2022-09-26T06:39:59.393Z,42.84
2022-09-26T06:42:27.777Z,42.46
2022-09-26T06:44:57.054Z,42.37
2022-09-26T06:47:24.979Z,41.96
2022-09-26T06:49:52.878Z,41.39
2022-09-26T06:52:20.950Z,41.15
2022-09-26T06:54:48.935Z,40.88
2022-09-26T06:57:22.325Z,40.65
2022-09-26T06:59:53.354Z,40.41
2022-09-26T07:02:21.292Z,39.85
2022-09-26T07:04:49.563Z,39.47
2022-09-26T07:07:20.913Z,39.36
2022-09-26T07:09:49.091Z,38.97
2022-09-26T07:12:17.093Z,39.10
2022-09-26T07:14:47.931Z,38.47
2022-09-26T07:17:18.192Z,38.26
2022-09-26T07:19:51.222Z,38.00
2022-09-26T07:22:19.069Z,37.56
2022-09-26T07:24:50.149Z,37.85
2022-09-26T07:27:18.077Z,37.20
2022-09-26T07:30:02.851Z,37.44
2022-09-26T07:32:30.924Z,36.65
2022-09-26T07:34:59.134Z,36.84
2022-09-26T07:37:28.715Z,36.51
2022-09-26T07:40:01.264Z,36.19
2022-09-26T07:42:29.777Z,36.23
2022-09-26T07:45:22.332Z,35.87
2022-09-26T07:48:06.196Z,35.63
2022-09-26T07:50:36.753Z,34.88
2022-09-26T07:53:05.862Z,34.27
2022-09-26T07:55:56.420Z,34.11
2022-09-26T07:58:25.467Z,33.91
2022-09-26T08:00:56.189Z,34.29
2022-09-26T08:03:25.724Z,33.97
2022-09-26T08:05:58.613Z,33.38
2022-09-26T08:08:27.569Z,33.26
2022-09-26T08:11:02.821Z,33.22
2022-09-26T08:13:32.483Z,32.95
2022-09-26T08:16:03.807Z,32.52
2022-09-26T08:18:33.520Z,32.57
2022-09-26T08:21:05.067Z,32.55
2022-09-26T08:23:35.241Z,32.30
2022-09-26T08:26:03.887Z,32.22
2022-09-26T08:28:31.653Z,32.19
2022-09-26T08:31:04.375Z,32.04
2022-09-26T08:33:34.659Z,31.78
2022-09-26T08:36:06.753Z,31.64
2022-09-26T08:38:35.873Z,31.31
2022-09-26T08:41:11.034Z,31.18
2022-09-26T08:43:48.507Z,30.96
2022-09-26T08:46:43.301Z,30.83
2022-09-26T08:49:26.710Z,30.54
2022-09-26T08:51:57.796Z,30.39
2022-09-26T08:54:30.944Z,29.93
2022-09-26T08:57:00.211Z,30.02
2022-09-26T08:59:31.583Z,29.78
2022-09-26T09:02:03.466Z,29.49
2022-09-26T09:04:38.714Z,29.57
2022-09-26T09:07:11.442Z,29.29
2022-09-26T09:09:39.276Z,29.21
2022-09-26T09:12:14.691Z,29.25
2022-09-26T09:15:23.539Z,29.09
2022-09-26T09:17:59.852Z,28.94
2022-09-26T09:20:34.074Z,28.92
2022-09-26T09:23:14.053Z,28.69
2022-09-26T09:25:47.585Z,28.58
2022-09-26T09:28:23.539Z,28.45
2022-09-26T09:30:56.831Z,28.35
2022-09-26T09:33:27.160Z,28.09
2022-09-26T09:35:56.632Z,28.06
2022-09-26T09:38:28.138Z,28.03
2022-09-26T09:41:02.661Z,27.92
2022-09-26T09:43:34.991Z,27.83
2022-09-26T09:46:05.096Z,27.87
2022-09-26T09:48:33.365Z,27.68
2022-09-26T09:51:14.220Z,27.63
2022-09-26T09:53:56.235Z,27.65
2022-09-26T09:56:29.924Z,27.56
2022-09-26T09:59:06.338Z,27.39
2022-09-26T10:01:36.113Z,27.25
2022-09-26T10:04:20.258Z,27.29
2022-09-26T10:06:48.494Z,27.42
2022-09-26T10:09:38.240Z,27.43
2022-09-26T10:12:10.288Z,27.21
2022-09-26T10:14:45.968Z,27.26
2022-09-26T10:17:19.267Z,27.19
2022-09-26T10:19:50.103Z,27.05
2022-09-26T10:22:25.578Z,27.04
2022-09-26T10:25:01.529Z,26.80
2022-09-26T10:27:36.309Z,26.82
2022-09-26T10:30:06.756Z,26.92
2022-09-26T10:32:45.163Z,26.68
2022-09-26T10:35:19.700Z,26.60
2022-09-26T10:37:57.492Z,26.64
2022-09-26T10:40:45.810Z,26.52
2022-09-26T10:43:30.730Z,26.30
2022-09-26T10:46:07.987Z,26.55
2022-09-26T10:48:42.422Z,26.43
2022-09-26T10:51:10.582Z,26.49
2022-09-26T10:53:40.712Z,26.59
2022-09-26T10:56:10.871Z,26.49
2022-09-26T10:58:41.176Z,26.51
2022-09-26T11:01:18.532Z,26.82
2022-09-26T11:03:46.815Z,26.80
2022-09-26T11:06:26.593Z,26.84
2022-09-26T11:08:56.712Z,26.95
2022-09-26T11:11:26.188Z,27.03
2022-09-26T11:14:03.588Z,26.98
2022-09-26T11:16:38.463Z,27.05
2022-09-26T11:19:10.896Z,26.91
2022-09-26T11:21:42.285Z,27.20
2022-09-26T11:24:15.795Z,27.40
2022-09-26T11:26:48.616Z,27.36
2022-09-26T11:29:19.762Z,27.65
2022-09-26T11:31:47.998Z,27.36
2022-09-26T11:34:19.388Z,27.53
2022-09-26T11:37:01.880Z,27.65
2022-09-26T11:39:40.346Z,27.84
2022-09-26T11:42:16.700Z,27.78
2022-09-26T11:44:53.244Z,27.83
2022-09-26T11:47:36.272Z,27.99
2022-09-26T11:50:13.440Z,27.79
2022-09-26T11:52:49.506Z,28.11
2022-09-26T11:55:25.864Z,27.98
2022-09-26T11:57:59.496Z,27.93
2022-09-26T12:00:30.918Z,28.07
2022-09-26T12:03:07.612Z,27.99
2022-09-26T12:05:43.658Z,28.12
2022-09-26T12:08:21.847Z,27.93
2022-09-26T12:10:56.168Z,28.06
2022-09-26T12:13:33.682Z,28.15
2022-09-26T12:16:09.078Z,28.15
2022-09-26T12:18:43.530Z,28.30
2022-09-26T12:21:18.670Z,28.13
2022-09-26T12:23:50.536Z,28.26
2022-09-26T12:26:22.209Z,28.22
2022-09-26T12:29:04.500Z,28.28
2022-09-26T12:31:38.512Z,28.14
2022-09-26T12:34:18.996Z,28.09
2022-09-26T12:36:54.866Z,28.12
2022-09-26T12:39:31.529Z,28.19
2022-09-26T12:42:07.480Z,28.40
2022-09-26T12:44:41.977Z,28.37
2022-09-26T12:47:20.818Z,28.47
2022-09-26T12:50:00.171Z,28.21
2022-09-26T12:52:36.915Z,28.31
2022-09-26T12:55:14.199Z,28.41
2022-09-26T12:57:47.517Z,28.57
2022-09-26T13:00:20.233Z,28.44
2022-09-26T13:03:13.649Z,28.47
2022-09-26T13:05:56.059Z,28.59
2022-09-26T13:08:30.374Z,28.29
2022-09-26T13:11:06.260Z,28.52
2022-09-26T13:13:51.103Z,28.46
2022-09-26T13:16:33.709Z,28.75
2022-09-26T13:19:05.345Z,28.90
2022-09-26T13:21:40.696Z,28.58
2022-09-26T13:24:13.310Z,28.56
2022-09-26T13:26:46.261Z,28.82
2022-09-26T13:29:26.692Z,28.64
2022-09-26T13:32:01.560Z,28.59
2022-09-26T13:34:33.916Z,28.63
2022-09-26T13:37:03.838Z,28.71
2022-09-26T13:39:37.951Z,28.27
2022-09-26T13:42:09.145Z,28.62
2022-09-26T13:44:48.957Z,28.39
2022-09-26T13:47:21.949Z,28.72
2022-09-26T13:49:56.763Z,28.63
2022-09-26T13:52:39.268Z,28.67
2022-09-26T13:55:14.189Z,28.66
2022-09-26T13:57:46.393Z,28.85
2022-09-26T14:00:38.320Z,28.87
2022-09-26T14:03:21.166Z,28.76
2022-09-26T14:05:50.322Z,28.81
2022-09-26T14:08:47.371Z,28.80
2022-09-26T14:11:24.039Z,28.82
2022-09-26T14:14:06.070Z,28.61
2022-09-26T14:16:34.729Z,28.64
2022-09-26T14:19:05.842Z,28.93
2022-09-26T14:21:44.120Z,28.84
2022-09-26T14:24:30.086Z,28.96
2022-09-26T14:27:03.232Z,28.81
2022-09-26T14:29:35.594Z,28.68
2022-09-26T14:32:05.144Z,28.88
2022-09-26T14:34:37.518Z,28.90
2022-09-26T14:37:22.968Z,28.84
2022-09-26T14:39:52.523Z,29.15
2022-09-26T14:42:24.272Z,29.26
2022-09-26T14:44:56.136Z,29.13
2022-09-26T14:47:24.981Z,29.10
2022-09-26T14:49:54.577Z,29.43
2022-09-26T14:52:24.726Z,29.39
2022-09-26T14:54:55.264Z,29.29
2022-09-26T14:57:28.362Z,29.46
2022-09-26T14:59:56.902Z,29.52
2022-09-26T15:02:28.162Z,29.60
2022-09-26T15:05:13.013Z,29.90
2022-09-26T15:07:45.336Z,29.79
2022-09-26T15:10:26.892Z,30.04
2022-09-26T15:12:57.252Z,29.81
2022-09-26T15:15:45.266Z,29.75
2022-09-26T15:18:17.715Z,29.93
2022-09-26T15:20:49.732Z,29.87
2022-09-26T15:23:21.512Z,29.98
2022-09-26T15:25:49.932Z,30.15
2022-09-26T15:28:17.960Z,30.30
2022-09-26T15:30:45.991Z,30.04
2022-09-26T15:33:16.717Z,30.01
2022-09-26T15:35:53.239Z,30.26
2022-09-26T15:38:23.651Z,30.52
2022-09-26T15:41:01.286Z,30.47
2022-09-26T15:43:33.837Z,30.70
2022-09-26T15:46:07.283Z,30.51
2022-09-26T15:48:43.671Z,30.98
2022-09-26T15:51:14.865Z,30.53
2022-09-26T15:53:44.983Z,30.86
2022-09-26T15:56:14.709Z,30.95
2022-09-26T15:58:46.537Z,31.49
2022-09-26T16:01:15.830Z,31.43
2022-09-26T16:03:46.054Z,31.66
2022-09-26T16:06:23.739Z,31.90
2022-09-26T16:08:54.087Z,32.27
2022-09-26T16:11:22.689Z,32.26
2022-09-26T16:13:51.859Z,32.45
2022-09-26T16:16:24.217Z,32.53
2022-09-26T16:18:54.660Z,32.77
2022-09-26T16:21:23.844Z,33.00
2022-09-26T16:23:52.653Z,33.09
2022-09-26T16:26:31.974Z,33.20
2022-09-26T16:29:00.205Z,33.68
2022-09-26T16:31:35.814Z,33.83
2022-09-26T16:34:16.705Z,33.99
2022-09-26T16:36:45.364Z,34.07
2022-09-26T16:39:19.387Z,34.20
2022-09-26T16:42:02.843Z,34.45
2022-09-26T16:44:35.728Z,34.72
2022-09-26T16:47:06.040Z,34.79
2022-09-26T16:49:41.621Z,34.91
2022-09-26T16:52:11.271Z,35.14
2022-09-26T16:54:39.294Z,35.20
2022-09-26T16:57:15.592Z,35.46
2022-09-26T16:59:43.546Z,35.67
2022-09-26T17:02:14.053Z,35.84
2022-09-26T17:04:43.073Z,35.93
2022-09-26T17:07:12.615Z,36.07
2022-09-26T17:09:42.139Z,36.35
2022-09-26T17:12:14.077Z,36.30
2022-09-26T17:14:42.639Z,36.51
2022-09-26T17:17:15.590Z,36.59
2022-09-26T17:19:45.705Z,36.83
2022-09-26T17:22:14.565Z,36.92
2022-09-26T17:24:42.936Z,37.05
2022-09-26T17:27:13.834Z,37.10
2022-09-26T17:29:43.383Z,37.20
2022-09-26T17:32:13.277Z,37.28
2022-09-26T17:34:41.167Z,37.38
2022-09-26T17:37:10.404Z,37.43
2022-09-26T17:39:38.441Z,37.72
2022-09-26T17:42:06.353Z,37.74
2022-09-26T17:44:36.424Z,37.87
2022-09-26T17:47:06.681Z,38.08
2022-09-26T17:49:35.927Z,38.27
2022-09-26T17:52:05.042Z,38.35
2022-09-26T17:54:42.362Z,38.56
2022-09-26T17:57:13.695Z,38.55
2022-09-26T17:59:42.063Z,38.60
2022-09-26T18:02:16.981Z,38.77
2022-09-26T18:04:45.712Z,39.06
2022-09-26T18:07:15.712Z,39.30
2022-09-26T18:09:44.131Z,39.52
2022-09-26T18:12:15.019Z,39.61
2022-09-26T18:14:43.221Z,39.79
2022-09-26T18:17:13.803Z,39.85
2022-09-26T18:19:41.875Z,39.98
2022-09-26T18:22:14.645Z,40.10
2022-09-26T18:24:44.825Z,40.31
2022-09-26T18:27:14.167Z,40.18
2022-09-26T18:29:43.276Z,39.94
2022-09-26T18:32:16.832Z,39.85
2022-09-26T18:34:44.856Z,39.94
2022-09-26T18:37:12.792Z,40.08
2022-09-26T18:39:40.944Z,40.17
2022-09-26T18:42:12.651Z,40.24
2022-09-26T18:44:42.522Z,40.11
2022-09-26T18:47:14.225Z,40.09
2022-09-26T18:49:44.158Z,40.07
2022-09-26T18:52:15.011Z,40.17
2022-09-26T18:54:44.448Z,40.29
2022-09-26T18:57:35.879Z,40.58
2022-09-26T19:00:04.911Z,40.73
2022-09-26T19:02:37.683Z,40.93
2022-09-26T19:05:07.281Z,40.99
2022-09-26T19:07:35.632Z,40.93
2022-09-26T19:10:03.850Z,40.89
2022-09-26T19:12:32.042Z,40.87
2022-09-26T19:15:00.244Z,41.16
2022-09-26T19:17:28.335Z,41.35
2022-09-26T19:19:56.568Z,41.50
2022-09-26T19:22:25.645Z,41.58
2022-09-26T19:24:56.025Z,41.60
2022-09-26T19:27:25.768Z,41.64
2022-09-26T19:29:56.880Z,41.65
2022-09-26T19:32:33.061Z,41.84
2022-09-26T19:35:02.882Z,41.86
2022-09-26T19:37:30.953Z,41.87
2022-09-26T19:39:59.464Z,41.95
2022-09-26T19:42:27.511Z,42.28
2022-09-26T19:44:55.920Z,42.38
2022-09-26T19:47:24.052Z,42.28
2022-09-26T19:49:52.754Z,42.39
2022-09-26T19:52:21.562Z,42.46
2022-09-26T19:54:49.847Z,42.38
2022-09-26T19:57:18.999Z,42.39
2022-09-26T19:59:47.829Z,42.48
2022-09-26T20:02:17.038Z,42.50
2022-09-26T20:04:45.265Z,42.49
2022-09-26T20:07:16.846Z,42.61
2022-09-26T20:09:45.418Z,42.79
2022-09-26T20:12:13.992Z,42.88
2022-09-26T20:14:45.696Z,43.18
2022-09-26T20:17:18.919Z,43.08
2022-09-26T20:19:48.049Z,43.17
2022-09-26T20:22:16.795Z,43.32
2022-09-26T20:24:47.681Z,43.26
2022-09-26T20:27:17.901Z,43.29
2022-09-26T20:30:12.588Z,43.30
2022-09-26T20:32:43.353Z,43.10
2022-09-26T20:35:13.470Z,43.31
2022-09-26T20:37:41.887Z,43.25
2022-09-26T20:40:13.374Z,43.28
2022-09-26T20:42:44.576Z,43.54
2022-09-26T20:45:16.157Z,43.56
2022-09-26T20:47:44.856Z,43.67
2022-09-26T20:50:15.064Z,43.77
2022-09-26T20:52:43.173Z,43.91
2022-09-26T20:55:15.092Z,43.86
2022-09-26T20:57:43.243Z,44.10
2022-09-26T21:00:15.043Z,44.14
2022-09-26T21:02:43.685Z,44.25
2022-09-26T21:05:15.684Z,44.29
2022-09-26T21:07:44.153Z,44.54
2022-09-26T21:10:22.779Z,44.72
2022-09-26T21:12:50.857Z,44.80
2022-09-26T21:15:19.422Z,44.88
2022-09-26T21:17:47.793Z,44.80
2022-09-26T21:20:17.097Z,44.83
2022-09-26T21:22:45.122Z,44.99
2022-09-26T21:25:17.188Z,45.01
2022-09-26T21:27:45.516Z,45.21
2022-09-26T21:30:14.676Z,45.35
2022-09-26T21:32:44.848Z,45.37
2022-09-26T21:35:14.446Z,45.35
2022-09-26T21:37:42.668Z,45.59
2022-09-26T21:40:11.200Z,45.86
2022-09-26T21:42:41.027Z,45.66
2022-09-26T21:45:13.843Z,45.71
2022-09-26T21:47:42.530Z,45.93
2022-09-26T21:50:12.527Z,46.06
2022-09-26T21:52:44.098Z,45.92
2022-09-26T21:55:13.881Z,46.21
2022-09-26T21:57:43.271Z,46.54
2022-09-26T22:00:13.278Z,46.31
2022-09-26T22:02:41.581Z,46.56
2022-09-26T22:05:10.243Z,46.44
2022-09-26T22:07:39.042Z,46.74
2022-09-26T22:10:07.733Z,46.84
2022-09-26T22:12:35.872Z,46.80
2022-09-26T22:15:06.472Z,47.19
2022-09-26T22:17:34.536Z,47.09
2022-09-26T22:20:03.099Z,47.39
2022-09-26T22:22:31.829Z,47.32
2022-09-26T22:25:03.778Z,47.61
2022-09-26T22:27:32.639Z,47.57
2022-09-26T22:30:00.855Z,47.60
2022-09-26T22:32:28.945Z,47.56
2022-09-26T22:34:56.940Z,47.48
2022-09-26T22:37:25.161Z,47.65
2022-09-26T22:39:53.125Z,47.66
2022-09-26T22:42:21.255Z,47.85
2022-09-26T22:44:49.188Z,47.84
2022-09-26T22:47:17.184Z,47.69
2022-09-26T22:49:45.380Z,47.94
2022-09-26T22:52:13.471Z,47.77
2022-09-26T22:54:41.500Z,47.91
2022-09-26T22:57:09.621Z,47.92
2022-09-26T22:59:38.539Z,47.77
2022-09-26T23:02:06.590Z,48.11
2022-09-26T23:04:46.691Z,47.91
2022-09-26T23:07:15.563Z,48.19
2022-09-26T23:09:43.602Z,48.30
2022-09-26T23:12:12.391Z,48.36
2022-09-26T23:14:41.073Z,48.38
2022-09-26T23:17:09.309Z,48.65
2022-09-26T23:19:37.630Z,48.71
2022-09-26T23:22:06.176Z,48.62
2022-09-26T23:24:34.390Z,48.81
2022-09-26T23:27:02.541Z,48.79
2022-09-26T23:29:30.449Z,49.06
2022-09-26T23:31:58.484Z,48.99
2022-09-26T23:34:26.432Z,49.13
2022-09-26T23:36:54.702Z,49.11
2022-09-26T23:39:23.148Z,49.29
2022-09-26T23:41:51.220Z,49.43
2022-09-26T23:44:19.341Z,49.55
2022-09-26T23:46:47.389Z,49.72
2022-09-26T23:49:15.648Z,49.80
2022-09-26T23:51:43.808Z,50.08
2022-09-26T23:54:11.809Z,50.26
2022-09-26T23:56:40.600Z,50.46
2022-09-26T23:59:08.744Z,50.35
